Time;durP1;ratioP1;P1;durP2;ratioP2;P2;SDS_P1;SDS_P2;PMS_P1;PMS_P2;Temp;Humidity;BMP_temperature;BMP_pressure;BME280_temperature;BME280_humidity;BME280_pressure;Samples;Min_cycle;Max_cycle;Signal;HPM_P1;HPM_P2
2022/10/14 00:01:33;;;;;;;4.13;3.70;;;19.60;58.90;;;;;;5089693;28;45250;-72
2022/10/14 00:04:02;;;;;;;4.30;3.60;;;19.50;59.00;;;;;;5089891;28;45274;-73
2022/10/14 00:06:30;;;;;;;4.05;3.63;;;19.50;59.00;;;;;;5089937;28;45280;-74
2022/10/14 00:08:59;;;;;;;4.20;3.30;;;19.50;59.00;;;;;;5089680;28;47118;-73
2022/10/14 00:11:27;;;;;;;4.32;3.80;;;19.50;59.10;;;;;;5089707;28;45214;-73
2022/10/14 00:13:55;;;;;;;4.75;3.50;;;19.50;59.10;;;;;;5089925;28;45376;-74
2022/10/14 00:16:22;;;;;;;4.93;3.72;;;19.50;59.20;;;;;;5089900;28;45356;-73
2022/10/14 00:18:49;;;;;;;3.60;3.30;;;19.50;59.10;;;;;;5089460;28;45240;-72
2022/10/14 00:21:17;;;;;;;3.95;3.55;;;19.50;59.00;;;;;;5088780;28;45229;-74
2022/10/14 00:23:44;;;;;;;4.35;3.22;;;19.50;59.10;;;;;;5089755;28;45257;-73
2022/10/14 00:26:16;;;;;;;3.33;3.03;;;19.50;59.00;;;;;;5089853;28;45300;-72
2022/10/14 00:28:42;;;;;;;4.03;3.67;;;19.50;59.10;;;;;;5089308;28;46380;-74
2022/10/14 00:31:09;;;;;;;3.70;3.33;;;19.50;59.10;;;;;;5089461;28;45310;-73
2022/10/14 00:33:36;;;;;;;4.10;3.70;;;19.50;59.10;;;;;;5089466;28;45267;-74
2022/10/14 00:36:04;;;;;;;3.55;3.25;;;19.40;59.10;;;;;;5089579;28;45170;-74
2022/10/14 00:38:33;;;;;;;3.38;3.08;;;19.40;59.10;;;;;;5089334;28;45260;-73
2022/10/14 00:40:59;;;;;;;3.53;2.72;;;19.40;59.20;;;;;;5089509;28;45292;-73
2022/10/14 00:43:28;;;;;;;3.28;2.90;;;19.40;59.10;;;;;;5088845;28;45345;-73
2022/10/14 00:45:55;;;;;;;3.22;2.92;;;19.40;59.10;;;;;;5089429;28;45253;-73
2022/10/14 00:48:23;;;;;;;3.67;3.38;;;19.40;59.70;;;;;;5088893;28;46340;-74
2022/10/14 00:50:52;;;;;;;3.38;3.08;;;19.40;59.70;;;;;;5086507;28;45303;-74
2022/10/14 00:53:19;;;;;;;3.58;3.28;;;19.40;59.10;;;;;;5089271;28;45248;-73
2022/10/14 00:55:47;;;;;;;3.58;3.28;;;19.40;59.10;;;;;;5089331;28;45187;-74
2022/10/14 00:58:14;;;;;;;3.20;2.85;;;19.40;59.20;;;;;;5088770;28;46423;-74
2022/10/14 01:00:41;;;;;;;3.40;3.10;;;19.40;59.20;;;;;;5088833;28;45273;-74
2022/10/14 01:03:09;;;;;;;3.03;2.83;;;19.30;59.20;;;;;;5089010;28;45390;-73
2022/10/14 01:05:42;;;;;;;3.25;3.03;;;19.30;59.20;;;;;;5089082;28;45578;-74
2022/10/14 01:08:09;;;;;;;2.72;2.53;;;19.30;59.20;;;;;;5088546;28;46775;-72
2022/10/14 01:10:39;;;;;;;2.95;2.75;;;19.30;59.20;;;;;;5088072;28;45268;-74
2022/10/14 01:13:14;;;;;;;3.13;2.88;;;19.30;59.20;;;;;;5088691;28;45295;-74
2022/10/14 01:15:43;;;;;;;3.42;3.13;;;19.30;59.30;;;;;;5088817;28;45455;-74
2022/10/14 01:18:27;;;;;;;3.17;2.63;;;19.30;59.30;;;;;;5088844;28;47436;-73
2022/10/14 01:21:00;;;;;;;3.50;3.20;;;19.30;59.30;;;;;;5088291;28;45344;-73
2022/10/14 01:24:15;;;;;;;2.80;2.60;;;19.30;59.30;;;;;;5088810;28;45236;-73
2022/10/14 01:26:59;;;;;;;3.30;3.00;;;19.20;59.20;;;;;;5040596;28;45295;-73
2022/10/14 01:30:02;;;;;;;2.95;2.58;;;19.20;59.30;;;;;;5045492;28;46745;-74
2022/10/14 01:32:30;;;;;;;2.85;2.60;;;19.20;59.30;;;;;;5005792;28;45373;-74
2022/10/14 01:35:02;;;;;;;3.20;2.90;;;19.20;59.30;;;;;;5006069;28;45291;-74
2022/10/14 01:37:29;;;;;;;2.90;2.70;;;19.20;59.30;;;;;;5046924;28;45362;-73
2022/10/14 01:39:57;;;;;;;2.90;2.70;;;19.20;59.30;;;;;;5088170;28;46432;-74
2022/10/14 01:42:25;;;;;;;2.92;2.58;;;19.20;59.30;;;;;;5088058;28;45319;-74
2022/10/14 01:44:54;;;;;;;2.83;2.47;;;19.20;59.20;;;;;;5088463;28;45216;-73
2022/10/14 01:47:23;;;;;;;3.08;2.70;;;19.20;59.30;;;;;;5088368;28;45368;-74
2022/10/14 01:49:52;;;;;;;3.05;2.78;;;19.20;59.30;;;;;;5087972;28;46679;-73
2022/10/14 01:52:21;;;;;;;2.80;2.60;;;19.20;59.30;;;;;;5088096;28;45293;-73
2022/10/14 01:54:49;;;;;;;2.60;2.40;;;19.20;59.20;;;;;;5087585;28;45289;-74
2022/10/14 01:57:17;;;;;;;3.00;2.80;;;19.20;59.20;;;;;;5087925;28;45374;-74
2022/10/14 01:59:44;;;;;;;2.78;2.58;;;19.20;59.30;;;;;;5087825;28;47266;-74
2022/10/14 02:02:11;;;;;;;2.60;2.40;;;19.20;59.90;;;;;;5087001;28;45253;-74
2022/10/14 02:04:39;;;;;;;2.65;2.45;;;19.20;59.40;;;;;;5088042;28;45312;-74
2022/10/14 02:07:06;;;;;;;3.08;2.67;;;19.20;59.30;;;;;;5087967;28;45222;-74
2022/10/14 02:09:38;;;;;;;2.58;2.38;;;19.20;59.30;;;;;;5087690;28;46702;-74
2022/10/14 02:12:10;;;;;;;2.65;2.30;;;19.20;59.30;;;;;;5087649;28;45194;-74
2022/10/14 02:14:39;;;;;;;3.17;2.88;;;19.20;59.20;;;;;;5087689;28;45371;-74
2022/10/14 02:17:07;;;;;;;2.85;2.58;;;19.20;59.20;;;;;;5088139;28;45200;-74
2022/10/14 02:19:37;;;;;;;2.67;2.33;;;19.20;59.20;;;;;;5087546;28;45497;-74
2022/10/14 02:22:08;;;;;;;2.42;2.30;;;19.20;59.80;;;;;;5087726;28;45201;-73
2022/10/14 02:24:35;;;;;;;3.03;2.72;;;19.20;59.20;;;;;;5087682;28;45209;-74
2022/10/14 02:27:04;;;;;;;2.50;2.13;;;19.20;59.20;;;;;;5087781;28;45459;-74
2022/10/14 02:29:31;;;;;;;2.78;2.47;;;19.10;59.10;;;;;;5087574;28;47295;-74
2022/10/14 02:31:57;;;;;;;2.40;2.20;;;19.20;59.20;;;;;;5087539;28;45252;-72
2022/10/14 02:34:24;;;;;;;2.58;2.38;;;19.10;59.20;;;;;;5087511;28;45304;-72
2022/10/14 02:36:51;;;;;;;2.55;2.35;;;19.10;59.20;;;;;;5087522;28;45477;-73
2022/10/14 02:39:21;;;;;;;2.53;2.30;;;19.10;59.20;;;;;;5087255;28;46725;-72
2022/10/14 02:41:48;;;;;;;2.50;2.13;;;19.10;59.20;;;;;;5086965;28;45278;-73
2022/10/14 02:44:15;;;;;;;2.45;2.25;;;19.10;59.30;;;;;;5087612;28;45288;-73
2022/10/14 02:46:43;;;;;;;2.70;2.50;;;19.10;59.30;;;;;;5086751;28;45279;-73
2022/10/14 02:49:09;;;;;;;2.60;2.40;;;19.10;59.20;;;;;;5087147;28;45236;-73
2022/10/14 02:51:36;;;;;;;2.50;2.25;;;19.10;59.20;;;;;;5087186;28;45206;-73
2022/10/14 02:54:03;;;;;;;3.25;2.83;;;19.10;59.20;;;;;;5087285;28;45276;-73
2022/10/14 02:56:32;;;;;;;2.58;2.38;;;19.10;59.20;;;;;;5087381;28;45450;-73
2022/10/14 02:58:58;;;;;;;2.80;2.13;;;19.10;59.20;;;;;;5086853;28;45422;-73
2022/10/14 03:01:25;;;;;;;2.50;2.30;;;19.10;59.30;;;;;;5086826;28;45206;-73
2022/10/14 03:03:52;;;;;;;2.30;2.10;;;19.10;59.30;;;;;;5087111;28;45217;-73
2022/10/14 03:06:19;;;;;;;2.40;2.25;;;19.10;59.20;;;;;;5087219;28;45486;-72
2022/10/14 03:08:46;;;;;;;2.92;2.60;;;19.10;59.20;;;;;;5086661;28;45303;-73
2022/10/14 03:11:13;;;;;;;2.60;2.40;;;19.10;59.20;;;;;;5084136;28;45438;-73
2022/10/14 03:13:41;;;;;;;2.53;2.10;;;19.10;59.20;;;;;;5086886;28;45202;-73
2022/10/14 03:16:08;;;;;;;2.35;2.17;;;19.10;59.20;;;;;;5087155;28;45425;-73
2022/10/14 03:18:35;;;;;;;2.72;2.28;;;19.10;59.20;;;;;;5083998;28;46260;-73
2022/10/14 03:21:01;;;;;;;2.40;2.20;;;19.10;59.10;;;;;;5087054;28;45292;-73
2022/10/14 03:23:28;;;;;;;2.33;2.13;;;19.10;59.20;;;;;;5086879;28;45292;-73
2022/10/14 03:25:55;;;;;;;2.38;2.08;;;19.10;59.20;;;;;;5087135;28;45396;-73
2022/10/14 03:28:22;;;;;;;3.40;2.33;;;19.10;59.20;;;;;;5086537;28;46431;-72
2022/10/14 03:30:50;;;;;;;2.35;2.15;;;19.10;59.20;;;;;;5086004;28;45268;-72
2022/10/14 03:33:17;;;;;;;2.00;1.90;;;19.10;59.20;;;;;;5086953;28;45406;-73
2022/10/14 03:35:44;;;;;;;1.98;1.88;;;19.10;59.20;;;;;;5086797;28;45401;-72
2022/10/14 03:38:11;;;;;;;2.08;1.90;;;19.10;59.20;;;;;;5086485;28;45237;-72
2022/10/14 03:40:38;;;;;;;2.08;1.83;;;19.00;59.20;;;;;;5086467;28;45335;-73
2022/10/14 03:43:04;;;;;;;2.17;2.00;;;19.00;59.20;;;;;;5086316;28;45238;-73
2022/10/14 03:45:31;;;;;;;3.05;2.40;;;19.00;59.20;;;;;;5086828;28;45397;-73
2022/10/14 03:47:59;;;;;;;2.17;1.98;;;19.00;59.10;;;;;;5086341;28;45304;-73
2022/10/14 03:50:26;;;;;;;2.60;1.98;;;19.00;59.20;;;;;;5086758;28;45207;-74
2022/10/14 03:52:53;;;;;;;2.20;2.10;;;19.00;59.10;;;;;;5086501;28;45280;-73
2022/10/14 03:55:20;;;;;;;3.70;2.40;;;19.00;59.70;;;;;;5086774;28;45162;-73
2022/10/14 03:57:47;;;;;;;3.17;2.40;;;19.00;59.20;;;;;;5086113;28;46706;-73
2022/10/14 04:00:15;;;;;;;2.05;1.95;;;19.00;59.80;;;;;;5086106;28;45296;-73
2022/10/14 04:02:42;;;;;;;2.90;1.95;;;19.00;59.10;;;;;;5086463;28;45193;-73
2022/10/14 04:05:10;;;;;;;2.53;2.33;;;19.00;59.80;;;;;;5086293;28;45397;-73
2022/10/14 04:07:37;;;;;;;2.33;2.03;;;19.00;59.10;;;;;;5086124;28;45273;-73
2022/10/14 04:10:05;;;;;;;2.10;2.00;;;19.00;59.20;;;;;;5086063;28;45312;-73
2022/10/14 04:12:32;;;;;;;2.13;1.92;;;19.00;59.30;;;;;;5086492;28;45202;-73
2022/10/14 04:14:58;;;;;;;2.20;2.00;;;19.00;59.30;;;;;;5085954;28;45187;-73
2022/10/14 04:17:25;;;;;;;3.33;1.80;;;19.00;59.80;;;;;;5086190;28;46419;-75
2022/10/14 04:19:53;;;;;;;2.20;2.00;;;19.00;59.20;;;;;;5085986;28;45304;-73
2022/10/14 04:22:21;;;;;;;2.05;1.90;;;19.00;59.20;;;;;;5086230;28;45242;-73
2022/10/14 04:24:48;;;;;;;2.63;2.22;;;19.00;59.20;;;;;;5088330;27;45131;-73
2022/10/14 04:27:15;;;;;;;2.05;1.85;;;19.00;59.20;;;;;;5089353;28;46349;-73
2022/10/14 04:29:42;;;;;;;2.08;1.90;;;19.00;59.20;;;;;;5090565;28;45302;-73
2022/10/14 04:32:09;;;;;;;1.92;1.80;;;19.00;59.10;;;;;;5089549;28;45314;-73
2022/10/14 04:34:36;;;;;;;1.88;1.77;;;19.00;59.20;;;;;;5089826;28;45372;-73
2022/10/14 04:37:03;;;;;;;2.92;2.05;;;19.00;59.10;;;;;;5089255;28;46633;-73
2022/10/14 04:39:31;;;;;;;2.08;1.90;;;18.90;59.10;;;;;;5090103;28;45213;-74
2022/10/14 04:41:58;;;;;;;2.33;2.13;;;18.90;59.10;;;;;;5089080;28;45388;-73
2022/10/14 04:44:25;;;;;;;1.70;1.60;;;18.90;59.10;;;;;;5089374;28;45293;-73
2022/10/14 04:46:52;;;;;;;2.03;1.83;;;18.90;59.10;;;;;;5088834;28;45468;-73
2022/10/14 04:49:18;;;;;;;2.38;2.17;;;18.90;59.10;;;;;;5089197;28;45211;-73
2022/10/14 04:51:45;;;;;;;2.38;2.03;;;18.90;59.10;;;;;;5089302;28;45193;-73
2022/10/14 04:54:12;;;;;;;1.80;1.70;;;18.90;59.10;;;;;;5089410;28;44811;-73
2022/10/14 04:56:40;;;;;;;2.78;2.00;;;18.90;59.10;;;;;;5088907;28;46273;-73
2022/10/14 04:59:07;;;;;;;1.83;1.73;;;18.90;59.10;;;;;;5088460;28;45276;-73
2022/10/14 05:01:34;;;;;;;2.17;1.88;;;18.90;59.10;;;;;;5088984;28;45210;-73
2022/10/14 05:04:01;;;;;;;3.45;1.95;;;18.90;59.20;;;;;;5089597;28;45360;-73
2022/10/14 05:06:28;;;;;;;2.38;1.75;;;18.90;59.20;;;;;;5088710;28;45414;-73
2022/10/14 05:08:55;;;;;;;2.13;1.92;;;18.90;59.70;;;;;;5088799;28;45316;-73
2022/10/14 05:11:22;;;;;;;1.67;1.58;;;18.90;59.20;;;;;;5088937;28;45288;-73
2022/10/14 05:13:50;;;;;;;1.77;1.67;;;18.90;59.20;;;;;;5089134;28;45455;-73
2022/10/14 05:16:17;;;;;;;2.35;1.63;;;18.90;59.20;;;;;;5088655;28;46394;-73
2022/10/14 05:18:44;;;;;;;1.98;1.52;;;18.90;59.20;;;;;;5089161;28;45388;-73
2022/10/14 05:21:11;;;;;;;1.90;1.80;;;18.90;59.20;;;;;;5088660;28;45127;-73
2022/10/14 05:23:38;;;;;;;2.13;1.88;;;18.90;59.20;;;;;;5089029;28;45269;-73
2022/10/14 05:26:05;;;;;;;2.10;1.90;;;18.90;59.20;;;;;;5088663;28;45509;-73
2022/10/14 05:28:32;;;;;;;2.53;2.10;;;18.90;59.20;;;;;;5088613;28;45322;-73
2022/10/14 05:31:00;;;;;;;2.05;1.70;;;18.90;59.20;;;;;;5088780;28;45296;-73
2022/10/14 05:33:28;;;;;;;1.90;1.80;;;18.90;59.20;;;;;;5088803;28;45389;-73
2022/10/14 05:35:55;;;;;;;1.80;1.70;;;18.90;59.20;;;;;;5087179;27;45360;-73
2022/10/14 05:38:22;;;;;;;2.60;1.80;;;18.90;59.20;;;;;;5088664;28;45369;-73
2022/10/14 05:40:52;;;;;;;1.73;1.63;;;18.90;59.30;;;;;;5088308;28;45377;-72
2022/10/14 05:43:19;;;;;;;1.80;1.70;;;18.90;59.30;;;;;;5087676;28;45162;-73
2022/10/14 05:45:46;;;;;;;2.67;1.48;;;18.90;59.30;;;;;;5088362;28;45224;-73
2022/10/14 05:48:14;;;;;;;2.65;1.77;;;18.90;59.20;;;;;;5085631;28;45305;-73
2022/10/14 05:50:44;;;;;;;2.00;1.80;;;18.90;59.20;;;;;;5088493;28;45265;-73
2022/10/14 05:53:13;;;;;;;2.20;1.73;;;18.90;59.20;;;;;;5088438;28;45478;-73
2022/10/14 05:55:41;;;;;;;1.85;1.73;;;18.90;59.30;;;;;;5088058;28;46712;-73
2022/10/14 05:58:08;;;;;;;2.10;1.55;;;18.90;59.20;;;;;;5088497;28;45198;-73
2022/10/14 06:00:34;;;;;;;1.67;1.58;;;18.80;59.20;;;;;;5088509;28;45212;-73
2022/10/14 06:03:01;;;;;;;2.97;1.80;;;18.80;59.20;;;;;;5088451;28;45313;-73
2022/10/14 06:05:31;;;;;;;2.42;1.95;;;18.80;59.20;;;;;;5087931;28;47446;-73
2022/10/14 06:07:58;;;;;;;1.77;1.67;;;18.80;59.20;;;;;;5087868;28;45197;-73
2022/10/14 06:10:26;;;;;;;1.90;1.77;;;18.80;59.30;;;;;;5088225;28;45254;-73
2022/10/14 06:12:52;;;;;;;1.90;1.60;;;18.80;59.20;;;;;;5088647;28;45288;-73
2022/10/14 06:15:19;;;;;;;1.58;1.48;;;18.80;59.20;;;;;;5087854;28;46924;-73
2022/10/14 06:17:46;;;;;;;3.42;1.88;;;18.80;59.20;;;;;;5088002;28;45311;-73
2022/10/14 06:20:13;;;;;;;1.92;1.83;;;18.80;59.20;;;;;;5088161;28;45277;-73
2022/10/14 06:22:41;;;;;;;1.75;1.60;;;18.80;59.20;;;;;;5087990;28;45251;-73
2022/10/14 06:25:09;;;;;;;2.72;1.80;;;18.80;59.20;;;;;;5087851;28;47321;-73
2022/10/14 06:27:36;;;;;;;1.65;1.55;;;18.80;59.20;;;;;;5087812;28;45447;-73
2022/10/14 06:30:03;;;;;;;1.67;1.58;;;18.80;59.30;;;;;;5087144;28;45335;-73
2022/10/14 06:32:30;;;;;;;1.80;1.70;;;18.80;59.20;;;;;;5087850;28;45364;-73
2022/10/14 06:34:57;;;;;;;1.42;1.33;;;18.80;59.20;;;;;;5087442;28;47569;-73
2022/10/14 06:37:24;;;;;;;1.70;1.60;;;18.80;59.20;;;;;;5087339;28;45312;-73
2022/10/14 06:39:52;;;;;;;1.77;1.67;;;18.90;59.20;;;;;;5087827;28;45249;-73
2022/10/14 06:42:19;;;;;;;1.48;1.38;;;18.80;59.20;;;;;;5087524;28;45480;-73
2022/10/14 06:44:46;;;;;;;1.80;1.70;;;18.80;59.20;;;;;;5087649;28;45220;-73
2022/10/14 06:47:12;;;;;;;2.05;1.80;;;18.90;59.30;;;;;;5087107;27;45342;-73
2022/10/14 06:49:39;;;;;;;1.75;1.65;;;18.80;59.20;;;;;;5087575;28;45243;-73
2022/10/14 06:52:06;;;;;;;2.03;1.60;;;18.80;59.20;;;;;;5087495;28;45338;-73
2022/10/14 06:54:33;;;;;;;3.65;1.70;;;18.80;59.30;;;;;;5087361;28;45615;-73
2022/10/14 06:57:01;;;;;;;2.05;1.85;;;18.80;59.20;;;;;;5087328;28;45247;-73
2022/10/14 06:59:28;;;;;;;1.83;1.73;;;18.80;59.30;;;;;;5087372;28;45292;-73
2022/10/14 07:01:55;;;;;;;1.50;1.45;;;18.80;59.30;;;;;;5087645;28;45444;-73
2022/10/14 07:04:22;;;;;;;1.90;1.75;;;18.80;59.30;;;;;;5087307;28;45319;-73
2022/10/14 07:06:49;;;;;;;2.05;1.25;;;18.80;59.30;;;;;;5086748;28;45277;-73
2022/10/14 07:09:15;;;;;;;1.85;1.60;;;18.80;59.90;;;;;;5083488;27;45430;-73
2022/10/14 07:11:42;;;;;;;1.75;1.42;;;18.80;59.30;;;;;;5087398;28;45424;-72
2022/10/14 07:14:11;;;;;;;4.50;1.98;;;18.80;59.20;;;;;;5086264;28;45304;-73
2022/10/14 07:16:37;;;;;;;2.50;1.80;;;18.80;59.30;;;;;;5081467;27;45539;-72
2022/10/14 07:19:04;;;;;;;1.73;1.52;;;18.80;59.30;;;;;;5066515;28;45178;-73
2022/10/14 07:21:31;;;;;;;1.77;1.67;;;18.80;59.30;;;;;;5066903;28;45241;-73
2022/10/14 07:23:58;;;;;;;5.30;1.95;;;18.80;59.30;;;;;;5066481;28;46692;-73
2022/10/14 07:26:25;;;;;;;2.28;1.92;;;18.90;59.40;;;;;;5066547;28;45534;-73
2022/10/14 07:28:52;;;;;;;2.13;1.40;;;18.90;59.40;;;;;;5081014;28;45363;-73
2022/10/14 07:31:20;;;;;;;2.45;1.50;;;18.90;59.40;;;;;;5086717;28;45154;-73
2022/10/14 07:33:47;;;;;;;1.70;1.60;;;18.80;59.40;;;;;;5084004;28;45303;-73
2022/10/14 07:36:15;;;;;;;2.42;1.45;;;18.90;59.50;;;;;;5084145;27;45395;-73
2022/10/14 07:38:41;;;;;;;2.15;1.60;;;18.90;59.40;;;;;;5086398;28;45336;-73
2022/10/14 07:41:15;;;;;;;1.80;1.40;;;18.90;59.50;;;;;;5086716;28;45470;-73
2022/10/14 07:43:42;;;;;;;1.63;1.52;;;18.90;59.40;;;;;;5069862;28;45644;-73
2022/10/14 07:46:11;;;;;;;2.40;1.80;;;18.90;59.40;;;;;;5086508;28;45244;-72
2022/10/14 07:48:39;;;;;;;1.98;1.45;;;18.90;59.40;;;;;;5086339;28;45347;-73
2022/10/14 07:51:07;;;;;;;3.20;1.60;;;18.90;59.50;;;;;;5085991;28;45427;-72
2022/10/14 07:53:34;;;;;;;2.03;1.70;;;18.90;59.50;;;;;;5084886;28;45451;-73
2022/10/14 07:56:01;;;;;;;1.70;1.60;;;18.90;59.40;;;;;;5084603;28;45260;-72
2022/10/14 07:58:28;;;;;;;1.60;1.50;;;18.90;60.00;;;;;;5083688;27;45548;-73
2022/10/14 08:00:55;;;;;;;1.70;1.60;;;18.90;59.40;;;;;;5083603;27;45599;-73
2022/10/14 08:03:22;;;;;;;1.60;1.50;;;18.90;59.40;;;;;;5089225;28;46664;-73
2022/10/14 08:05:50;;;;;;;2.30;1.60;;;18.90;59.40;;;;;;5089750;28;45229;-73
2022/10/14 08:08:17;;;;;;;1.75;1.65;;;18.90;59.40;;;;;;5085697;28;45450;-73
2022/10/14 08:10:44;;;;;;;1.80;1.52;;;18.90;59.40;;;;;;5073664;28;45397;-73
2022/10/14 08:13:11;;;;;;;1.58;1.48;;;18.90;59.40;;;;;;5089804;28;46380;-73
2022/10/14 08:15:39;;;;;;;2.58;1.63;;;18.90;59.40;;;;;;5087693;28;45336;-72
2022/10/14 08:18:06;;;;;;;1.60;1.50;;;18.90;59.40;;;;;;5088089;27;45252;-73
2022/10/14 08:20:33;;;;;;;2.33;1.60;;;18.90;59.40;;;;;;5088463;28;45457;-73
2022/10/14 08:23:02;;;;;;;2.33;1.38;;;18.90;59.40;;;;;;5088522;27;47323;-73
2022/10/14 08:25:29;;;;;;;1.52;1.40;;;18.90;59.40;;;;;;5088902;28;45234;-72
2022/10/14 08:27:57;;;;;;;1.50;1.40;;;18.90;59.40;;;;;;5075193;28;45345;-73
2022/10/14 08:30:25;;;;;;;1.73;1.63;;;18.90;59.40;;;;;;5084809;28;45349;-73
2022/10/14 08:32:51;;;;;;;1.98;1.45;;;18.90;59.40;;;;;;5088786;28;46731;-72
2022/10/14 08:35:18;;;;;;;2.50;1.42;;;18.90;59.40;;;;;;5088230;28;45196;-72
2022/10/14 08:37:54;;;;;;;1.52;1.42;;;18.90;59.40;;;;;;5088922;28;45338;-72
2022/10/14 08:40:22;;;;;;;1.75;1.65;;;18.90;59.50;;;;;;5089352;28;45455;-73
2022/10/14 08:42:50;;;;;;;1.40;1.33;;;18.90;59.50;;;;;;5086792;27;46327;-73
2022/10/14 08:45:18;;;;;;;1.60;1.50;;;18.90;59.50;;;;;;5089163;28;45377;-72
2022/10/14 08:47:47;;;;;;;1.85;1.75;;;18.90;59.60;;;;;;5086943;28;45466;-72
2022/10/14 08:50:20;;;;;;;3.67;1.58;;;18.90;59.40;;;;;;5088329;28;45387;-73
2022/10/14 08:52:50;;;;;;;2.28;1.40;;;18.90;59.50;;;;;;5078492;27;45497;-72
2022/10/14 08:55:23;;;;;;;2.28;1.75;;;18.90;59.50;;;;;;5087612;28;45474;-73
2022/10/14 08:57:52;;;;;;;2.55;1.42;;;18.90;60.10;;;;;;5088614;28;45414;-73
2022/10/14 09:00:19;;;;;;;2.45;1.50;;;18.90;59.60;;;;;;5087775;28;45366;-73
2022/10/14 09:02:47;;;;;;;2.50;1.77;;;18.90;59.60;;;;;;5088053;27;45494;-72
2022/10/14 09:05:14;;;;;;;1.38;1.27;;;18.90;59.60;;;;;;5087202;27;45439;-73
2022/10/14 09:07:41;;;;;;;1.98;1.60;;;18.90;59.60;;;;;;5079719;27;45332;-73
2022/10/14 09:10:12;;;;;;;1.60;1.50;;;18.90;59.70;;;;;;5083172;27;45527;-73
2022/10/14 09:12:41;;;;;;;1.50;1.40;;;18.90;59.70;;;;;;5072614;28;46810;-73
2022/10/14 09:15:12;;;;;;;1.73;1.45;;;18.90;59.70;;;;;;5074095;27;45491;-73
2022/10/14 09:17:41;;;;;;;1.80;1.67;;;18.90;59.60;;;;;;5088155;28;45325;-73
2022/10/14 09:20:16;;;;;;;1.60;1.50;;;18.90;59.60;;;;;;5088313;28;45376;-73
2022/10/14 09:22:43;;;;;;;2.53;1.48;;;18.90;59.60;;;;;;5087974;28;47570;-73
2022/10/14 09:25:13;;;;;;;2.22;1.67;;;18.90;59.60;;;;;;5088497;28;45289;-74
2022/10/14 09:27:41;;;;;;;1.73;1.40;;;18.90;59.50;;;;;;5087067;27;45315;-73
2022/10/14 09:30:13;;;;;;;1.83;1.73;;;19.00;59.50;;;;;;5071498;28;45522;-73
2022/10/14 09:32:43;;;;;;;1.50;1.40;;;19.00;59.60;;;;;;5085828;27;46385;-73
2022/10/14 09:35:14;;;;;;;3.85;1.48;;;19.00;59.70;;;;;;5071494;28;45231;-73
2022/10/14 09:37:41;;;;;;;1.25;1.25;;;19.00;59.60;;;;;;5087191;28;45365;-73
2022/10/14 09:40:14;;;;;;;1.80;1.27;;;19.00;59.60;;;;;;5086389;28;45394;-73
2022/10/14 09:42:47;;;;;;;1.45;1.35;;;19.00;59.70;;;;;;5087365;28;45564;-72
2022/10/14 09:45:15;;;;;;;2.63;1.40;;;19.00;59.60;;;;;;5081173;28;45383;-72
2022/10/14 09:47:48;;;;;;;2.00;1.75;;;19.00;59.70;;;;;;5087975;28;45433;-73
2022/10/14 09:50:21;;;;;;;1.58;1.48;;;19.00;59.60;;;;;;5087557;28;45412;-73
2022/10/14 09:52:51;;;;;;;2.63;1.30;;;19.00;59.70;;;;;;5070647;28;45310;-72
2022/10/14 09:55:19;;;;;;;1.67;1.40;;;19.00;59.60;;;;;;5081548;28;45439;-72
2022/10/14 09:57:47;;;;;;;1.52;1.42;;;19.00;59.60;;;;;;5085954;28;45490;-72
2022/10/14 10:00:26;;;;;;;1.77;1.63;;;19.10;59.70;;;;;;5088162;28;45197;-72
2022/10/14 10:02:54;;;;;;;2.38;1.60;;;19.10;59.70;;;;;;5080777;28;45424;-72
2022/10/14 10:05:23;;;;;;;1.85;1.73;;;19.10;59.70;;;;;;5084227;27;45573;-73
2022/10/14 10:08:03;;;;;;;1.50;1.40;;;19.10;59.70;;;;;;5085277;28;45462;-73
2022/10/14 10:10:30;;;;;;;1.70;1.60;;;19.10;59.70;;;;;;5087566;28;45346;-73
2022/10/14 10:12:58;;;;;;;1.50;1.40;;;19.10;59.70;;;;;;5087176;28;45185;-73
2022/10/14 10:15:25;;;;;;;2.13;1.48;;;19.10;59.70;;;;;;5085677;28;45461;-73
2022/10/14 10:17:53;;;;;;;1.50;1.40;;;19.10;59.60;;;;;;5083863;28;45406;-73
2022/10/14 10:20:27;;;;;;;2.35;1.65;;;19.20;59.70;;;;;;5087659;28;45353;-73
2022/10/14 10:22:55;;;;;;;1.33;1.23;;;19.20;59.70;;;;;;5086586;27;46646;-73
2022/10/14 10:25:26;;;;;;;2.17;1.50;;;19.20;59.70;;;;;;5087106;28;45311;-73
2022/10/14 10:27:54;;;;;;;3.47;1.52;;;19.20;59.70;;;;;;5087324;28;45332;-73
2022/10/14 10:30:25;;;;;;;2.33;1.50;;;19.20;59.70;;;;;;5087561;28;45549;-73
2022/10/14 10:33:03;;;;;;;1.45;1.35;;;19.20;59.70;;;;;;5087075;28;45482;-73
2022/10/14 10:35:32;;;;;;;2.13;1.33;;;19.20;59.70;;;;;;5087112;28;45317;-73
2022/10/14 10:38:05;;;;;;;1.48;1.38;;;19.20;59.70;;;;;;5084839;28;45251;-72
2022/10/14 10:40:38;;;;;;;1.48;1.30;;;19.20;59.70;;;;;;5087074;27;45151;-73
2022/10/14 10:43:38;;;;;;;2.42;2.10;;;19.20;59.70;;;;;;5084228;28;46630;-73
2022/10/14 10:46:15;;;;;;;2.03;1.40;;;19.20;59.70;;;;;;5072545;28;45486;-72
2022/10/14 10:48:45;;;;;;;3.70;1.42;;;19.20;59.70;;;;;;5082094;28;45514;-72
2022/10/14 10:51:13;;;;;;;2.17;1.50;;;19.20;59.70;;;;;;5078284;28;45604;-72
2022/10/14 10:54:01;;;;;;;2.13;1.27;;;19.30;59.70;;;;;;5083115;28;46654;-72
2022/10/14 10:56:33;;;;;;;1.50;1.30;;;19.30;59.80;;;;;;5072729;28;45345;-71
2022/10/14 10:59:25;;;;;;;1.55;1.45;;;19.30;59.80;;;;;;5085886;28;45142;-72
2022/10/14 11:01:56;;;;;;;1.27;1.20;;;19.30;59.70;;;;;;5086948;28;45514;-72
2022/10/14 11:04:29;;;;;;;4.25;1.40;;;19.30;59.80;;;;;;5085768;28;46670;-70
2022/10/14 11:12:37;;;;;;;2.55;1.58;;;19.30;59.80;;;;;;5065446;27;45602;-72
2022/10/14 11:15:27;;;;;;;1.48;1.35;;;19.30;59.80;;;;;;5087148;28;46867;-72
2022/10/14 11:17:58;;;;;;;2.15;1.30;;;19.30;59.80;;;;;;5086730;28;45320;-73
2022/10/14 11:20:35;;;;;;;1.30;1.20;;;19.40;59.80;;;;;;5087218;27;45347;-73
2022/10/14 11:23:40;;;;;;;1.50;1.40;;;19.40;59.80;;;;;;5087180;28;45655;-73
2022/10/14 11:26:13;;;;;;;1.50;1.40;;;19.40;59.80;;;;;;5038732;28;45240;-74
2022/10/14 11:28:44;;;;;;;2.13;1.35;;;19.40;59.60;;;;;;5086839;28;45456;-73
2022/10/14 11:31:16;;;;;;;1.90;1.60;;;19.40;59.70;;;;;;5086762;28;45433;-73
2022/10/14 11:33:51;;;;;;;1.60;1.50;;;19.50;59.80;;;;;;5083767;28;45486;-72
2022/10/14 11:36:22;;;;;;;1.60;1.50;;;19.50;59.80;;;;;;5079349;27;46353;-73
2022/10/14 11:39:10;;;;;;;1.52;1.40;;;19.50;59.80;;;;;;5081544;27;45598;-73
2022/10/14 11:41:45;;;;;;;1.90;1.25;;;19.50;59.80;;;;;;5080016;27;45451;-72
2022/10/14 11:44:15;;;;;;;1.52;1.10;;;19.50;59.90;;;;;;5068153;28;45307;-72
2022/10/14 11:46:44;;;;;;;1.40;1.02;;;19.50;60.20;;;;;;5086283;28;47119;-73
2022/10/14 11:49:15;;;;;;;1.40;1.30;;;19.50;60.30;;;;;;5087063;28;45420;-73
2022/10/14 11:51:43;;;;;;;1.42;1.30;;;19.60;60.50;;;;;;5084081;28;45530;-73
2022/10/14 11:54:13;;;;;;;1.40;1.02;;;19.60;60.50;;;;;;5085146;28;45483;-73
2022/10/14 11:56:44;;;;;;;2.35;1.10;;;19.50;60.70;;;;;;5072622;28;46299;-73
2022/10/14 11:59:28;;;;;;;1.35;1.20;;;19.60;60.80;;;;;;5084659;28;45317;-73
2022/10/14 12:01:58;;;;;;;1.52;1.27;;;19.60;60.80;;;;;;5078831;27;45346;-72
2022/10/14 12:04:28;;;;;;;1.67;1.10;;;19.60;60.80;;;;;;5086639;28;45426;-72
2022/10/14 12:06:59;;;;;;;1.30;1.10;;;19.60;60.90;;;;;;5085423;28;47072;-73
2022/10/14 12:09:30;;;;;;;1.30;1.20;;;19.60;61.10;;;;;;5084153;28;45277;-73
2022/10/14 12:11:59;;;;;;;1.90;1.20;;;19.60;61.90;;;;;;5084323;28;45288;-73
2022/10/14 12:14:29;;;;;;;2.45;1.00;;;19.60;61.30;;;;;;5083909;28;45265;-73
2022/10/14 12:16:56;;;;;;;1.27;1.17;;;19.70;61.50;;;;;;5083681;28;45590;-73
2022/10/14 12:19:25;;;;;;;1.77;1.00;;;19.70;61.50;;;;;;5085110;28;45283;-72
2022/10/14 12:21:55;;;;;;;4.43;1.15;;;19.70;61.60;;;;;;5082718;28;45585;-73
2022/10/14 12:24:24;;;;;;;1.13;0.93;;;19.70;61.60;;;;;;5086227;28;45399;-73
2022/10/14 12:26:52;;;;;;;0.82;0.82;;;19.70;61.80;;;;;;5084206;28;46676;-73
2022/10/14 12:29:20;;;;;;;1.65;0.90;;;19.70;61.80;;;;;;5085534;27;45561;-72
2022/10/14 12:32:05;;;;;;;1.70;0.90;;;19.70;61.70;;;;;;5086142;28;45261;-74
2022/10/14 12:34:34;;;;;;;1.40;0.90;;;19.70;61.80;;;;;;5082681;28;46455;-73
2022/10/14 12:37:30;;;;;;;1.08;0.80;;;19.70;61.80;;;;;;5080167;28;45506;-74
2022/10/14 12:40:21;;;;;;;1.08;0.90;;;19.70;62.00;;;;;;5084518;27;45450;-73
2022/10/14 12:43:04;;;;;;;2.97;1.05;;;19.70;62.10;;;;;;5077911;28;45239;-72
2022/10/14 12:45:32;;;;;;;4.13;1.00;;;19.80;62.10;;;;;;5083106;27;45477;-72
2022/10/14 12:48:05;;;;;;;1.33;1.00;;;19.70;62.70;;;;;;5083137;27;46816;-72
2022/10/14 12:50:35;;;;;;;0.90;0.90;;;19.80;62.50;;;;;;5086822;28;45497;-73
2022/10/14 12:53:06;;;;;;;3.08;0.95;;;19.80;62.60;;;;;;5089883;27;45291;-73
2022/10/14 12:55:35;;;;;;;3.30;1.20;;;19.80;62.20;;;;;;5090079;27;45244;-73
2022/10/14 12:58:03;;;;;;;2.30;0.95;;;19.80;62.10;;;;;;5089708;27;46416;-73
2022/10/14 13:00:32;;;;;;;2.60;0.98;;;19.80;63.40;;;;;;5091035;28;45334;-73
2022/10/14 13:03:00;;;;;;;2.15;0.90;;;19.80;63.10;;;;;;5090828;28;45265;-73
2022/10/14 13:05:30;;;;;;;2.10;1.10;;;19.70;62.90;;;;;;5088528;28;46355;-74